To NAV CANADA Home Page Login to a new session Search on AWWS site Feedback and Comments Disclaimer Vers la page française équivalente Tips FAQ What's new on the site To the Forecasts and Observations / NOTAM section To "File a Flight Plan" website Publications and other links Update of the User's profile FIC Telephone Numbers My Weather Data Folder Route Weather Data Regional Weather Data Local Weather Data To the Forecasts and Observations / NOTAM section
Request Generated 04/25/2014 at 06:01:31 UTC . Weather information available at that time is displayed.

METAR/TAF

MARYS HARBOUR/NL    

SPECI CYMH 250521Z AUTO 02011G16KT 1 1/4SM -FZRA BR OVC003 M00/M01
A2995 RMK ICG SLP141=
SPECI CYMH 250516Z AUTO 03010G16KT 1 1/2SM -FZRA BR OVC003 M00/M01
A2995 RMK ICG SLP142=
SPECI CYMH 250511Z AUTO 02009G17KT 1 1/2SM BR OVC003 M00/M01 A2995
RMK ICG SLP142=
SPECI CYMH 250508Z AUTO 03011G17KT 1 1/2SM -FZRA BR OVC003 M00/M01
A2995 RMK ICG SLP143=
METAR CYMH 250500Z AUTO 02010G17KT 1 1/4SM -FZRA BR OVC003 M00/M01
A2995 RMK ICG SLP144=
SPECI CYMH 250422Z AUTO 02012G20KT 1SM -FZRA BR OVC003 M00/M01 A2997
RMK ICG SLP148=
SPECI CYMH 250419Z AUTO 02012G20KT 1SM BR OVC003 M00/M01 A2997 RMK
ICG SLP148=
SPECI CYMH 250414Z AUTO 02013G20KT 1 1/4SM BR OVC003 M00/M01 A2997
RMK SLP149=
METAR CYMH 250400Z AUTO 02013G19KT 1 3/4SM BR OVC003 M00/M01 A2998
RMK ICG PAST HR SLP151=
SPECI CYMH 250358Z AUTO 01012G19KT 2SM BR OVC003 M00/M01 A2998 RMK
ICG INTMT SLP151=
SPECI CYMH 250353Z AUTO 02012G20KT 2 1/2SM BR OVC003 M00/M01 A2998
RMK ICG INTMT SLP151=
SPECI CYMH 250347Z AUTO 01012G20KT 1 3/4SM BR OVC003 M00/M01 A2998
RMK ICG INTMT SLP153=
SPECI CYMH 250316Z AUTO 02011G19KT 1 1/2SM -FZRA BR OVC003 M00/M01
A2999 RMK ICG SLP156=
METAR CYMH 250300Z AUTO 02012G23KT 1 1/2SM BR OVC003 M00/M01 A2999
RMK ICG SLP157=

*** REMARK        : Forecast period has ended; this was the last TAF issued
*** REMARQUE : La période de prévision est échue; ceci était le dernier TAF qui a été émis
TAF AMD CYMH 242308Z 2423/2503 02010G20KT 6SM -SN BR SCT007 OVC025
TEMPO 2423/2502 2SM -SN -FZDZ BR OVC007
FM250200 04010G20KT 2SM -FZDZ BR OVC005 TEMPO 2502/2503 4SM -SN
BR OVC008
RMK NXT FCST WILL BE ISSUED AT 250845Z=
Your time UTC time
Weather data provided by Environment Canada and NAV CANADA